createdAt,value
2018-05-23T00:00:15.573Z,99.99
2018-05-23T00:01:15.566Z,99.99
2018-05-23T00:02:15.565Z,99.99
2018-05-23T00:03:15.569Z,99.99
2018-05-23T00:04:15.569Z,99.99
2018-05-23T00:05:15.567Z,99.99
2018-05-23T00:06:15.566Z,99.99
2018-05-23T00:07:15.560Z,99.99
2018-05-23T00:08:15.559Z,99.99
2018-05-23T00:09:15.559Z,99.99
2018-05-23T00:10:15.558Z,99.99
2018-05-23T00:11:15.561Z,99.99
2018-05-23T00:12:15.561Z,99.99
2018-05-23T00:13:15.561Z,99.99
2018-05-23T00:14:15.561Z,99.99
2018-05-23T00:15:15.555Z,99.99
2018-05-23T00:16:15.554Z,99.99
2018-05-23T00:17:15.558Z,99.99
2018-05-23T00:18:15.557Z,99.99
2018-05-23T00:19:15.551Z,99.99
2018-05-23T00:20:15.552Z,99.99
2018-05-23T00:21:15.551Z,99.99
2018-05-23T00:22:15.554Z,99.99
2018-05-23T00:23:15.552Z,99.99
2018-05-23T00:24:15.551Z,99.99
2018-05-23T00:25:15.551Z,99.99
2018-05-23T00:26:15.551Z,99.99
2018-05-23T00:27:15.544Z,99.99
2018-05-23T00:28:15.544Z,99.99
2018-05-23T00:29:15.544Z,99.99
2018-05-23T00:30:15.543Z,99.99
2018-05-23T00:31:15.554Z,99.99
2018-05-23T00:32:15.544Z,99.99
2018-05-23T00:33:15.539Z,99.99
2018-05-23T00:34:15.539Z,99.99
2018-05-23T00:35:15.542Z,99.99
2018-05-23T00:36:15.542Z,99.99
2018-05-23T00:37:15.540Z,99.99
2018-05-23T00:38:15.539Z,99.99
2018-05-23T00:39:15.535Z,99.99
2018-05-23T00:40:15.532Z,99.99
2018-05-23T00:41:15.531Z,99.99
2018-05-23T00:42:15.530Z,99.99
2018-05-23T00:43:15.533Z,99.99
2018-05-23T00:44:15.532Z,99.99
2018-05-23T00:45:15.532Z,99.99
2018-05-23T00:46:15.533Z,99.99
2018-05-23T00:47:15.524Z,99.99
2018-05-23T00:48:15.524Z,99.99
2018-05-23T00:49:15.535Z,99.99
2018-05-23T00:50:15.595Z,99.99
2018-05-23T00:51:15.520Z,99.99
2018-05-23T00:52:15.519Z,99.99
2018-05-23T00:53:15.518Z,99.99
2018-05-23T00:54:15.518Z,99.99
2018-05-23T00:55:15.520Z,99.99
2018-05-23T00:56:15.519Z,99.99
2018-05-23T00:57:15.519Z,99.99
2018-05-23T00:58:15.520Z,99.99
2018-05-23T00:59:15.512Z,99.99
2018-05-23T01:00:15.512Z,99.99
2018-05-23T01:01:15.509Z,99.99
2018-05-23T01:02:15.509Z,99.99
2018-05-23T01:03:15.511Z,99.99
2018-05-23T01:04:15.510Z,99.99
2018-05-23T01:05:15.507Z,99.99
2018-05-23T01:06:15.504Z,99.99
2018-05-23T01:07:15.506Z,99.99
2018-05-23T01:08:15.505Z,99.99
2018-05-23T01:09:15.506Z,99.99
2018-05-23T01:10:15.505Z,99.99
2018-05-23T01:11:15.498Z,99.99
2018-05-23T01:12:15.497Z,99.99
2018-05-23T01:13:15.498Z,99.99
2018-05-23T01:14:15.495Z,99.99
2018-05-23T01:15:15.498Z,99.99
2018-05-23T01:16:15.496Z,99.99
2018-05-23T01:17:15.495Z,99.99
2018-05-23T01:18:15.494Z,99.99
2018-05-23T01:19:15.487Z,99.99
2018-05-23T01:20:15.487Z,99.99
2018-05-23T01:21:15.490Z,99.99
2018-05-23T01:22:15.493Z,99.99
2018-05-23T01:23:15.483Z,99.99
2018-05-23T01:24:15.482Z,99.99
2018-05-23T01:25:15.481Z,99.99
2018-05-23T01:26:15.479Z,99.99
2018-05-23T01:27:15.483Z,99.99
2018-05-23T01:28:15.482Z,99.99
2018-05-23T01:29:15.481Z,99.99
2018-05-23T01:30:15.480Z,99.99
2018-05-23T01:31:15.473Z,99.99
2018-05-23T01:32:15.471Z,99.99
2018-05-23T01:33:15.471Z,99.99
2018-05-23T01:34:15.469Z,99.99
2018-05-23T01:35:15.472Z,99.99
2018-05-23T01:36:15.471Z,99.99
2018-05-23T01:37:15.466Z,99.99
2018-05-23T01:38:15.464Z,99.99
2018-05-23T01:39:15.466Z,99.99
2018-05-23T01:40:15.465Z,99.99
2018-05-23T01:41:15.465Z,99.99
2018-05-23T01:42:15.464Z,99.99
2018-05-23T01:43:15.456Z,99.99
2018-05-23T01:44:15.457Z,99.99
2018-05-23T01:45:15.458Z,99.99
2018-05-23T01:46:15.453Z,99.99
2018-05-23T01:47:15.456Z,99.99
2018-05-23T01:48:15.454Z,99.99
2018-05-23T01:49:15.453Z,99.99
2018-05-23T01:50:15.455Z,99.99
2018-05-23T01:51:15.446Z,99.99
2018-05-23T01:52:15.447Z,99.99
2018-05-23T01:53:15.447Z,99.99
2018-05-23T01:54:15.447Z,99.99
2018-05-23T01:55:15.440Z,99.99
2018-05-23T01:56:15.438Z,99.99
2018-05-23T01:57:15.441Z,99.99
2018-05-23T01:58:15.435Z,99.99
2018-05-23T01:59:15.437Z,99.99
2018-05-23T02:00:15.443Z,99.99
2018-05-23T02:01:15.431Z,99.99
2018-05-23T02:02:15.432Z,99.99
2018-05-23T02:03:15.431Z,99.99
2018-05-23T02:04:15.434Z,99.99
2018-05-23T02:05:15.429Z,99.99
2018-05-23T02:06:15.427Z,99.99
2018-05-23T02:07:15.421Z,99.99
2018-05-23T02:08:15.420Z,99.99
2018-05-23T02:09:15.422Z,99.99
2018-05-23T02:10:15.421Z,99.99
2018-05-23T02:11:15.416Z,99.99
2018-05-23T02:12:15.413Z,99.99
2018-05-23T02:13:15.412Z,99.99
2018-05-23T02:14:15.410Z,99.99
2018-05-23T02:15:15.414Z,99.99
2018-05-23T02:16:15.412Z,99.99
2018-05-23T02:17:15.410Z,99.99
2018-05-23T02:18:15.409Z,99.99
2018-05-23T02:19:15.405Z,99.99
2018-05-23T02:20:15.401Z,99.99
2018-05-23T02:21:15.399Z,99.99
2018-05-23T02:22:15.397Z,99.99
2018-05-23T02:23:15.399Z,99.99
2018-05-23T02:24:15.402Z,99.99
2018-05-23T02:25:15.392Z,99.99
2018-05-23T02:26:15.391Z,99.99
2018-05-23T02:27:15.394Z,99.99
2018-05-23T02:28:15.394Z,99.99
2018-05-23T02:29:15.391Z,99.99
2018-05-23T02:30:15.390Z,99.99
2018-05-23T02:31:15.382Z,99.99
2018-05-23T02:32:15.381Z,99.99
2018-05-23T02:33:15.379Z,99.99
2018-05-23T02:34:15.379Z,99.99
2018-05-23T02:35:15.380Z,99.99
2018-05-23T02:36:15.380Z,99.99
2018-05-23T02:37:15.378Z,99.99
2018-05-23T02:38:15.376Z,99.99
2018-05-23T02:39:15.375Z,99.99
2018-05-23T02:40:15.369Z,99.99
2018-05-23T02:41:15.370Z,99.99
2018-05-23T02:42:15.369Z,99.99
2018-05-23T02:43:15.361Z,99.99
2018-05-23T02:44:15.361Z,99.99
2018-05-23T02:45:15.361Z,99.99
2018-05-23T02:46:15.359Z,99.99
2018-05-23T02:47:15.473Z,99.99
2018-05-23T02:48:15.360Z,99.99
2018-05-23T02:49:15.359Z,99.99
2018-05-23T02:50:15.357Z,99.99
2018-05-23T02:51:15.360Z,99.99
2018-05-23T02:52:15.348Z,99.99
2018-05-23T02:53:15.347Z,99.99
2018-05-23T02:54:15.345Z,99.99
2018-05-23T02:55:15.347Z,99.99
2018-05-23T02:56:15.347Z,99.99
2018-05-23T02:57:15.341Z,99.99
2018-05-23T02:58:15.339Z,99.99
2018-05-23T02:59:15.344Z,99.99
2018-05-23T03:00:15.341Z,99.99
2018-05-23T03:01:15.339Z,99.99
2018-05-23T03:02:15.338Z,99.99
2018-05-23T03:03:15.330Z,99.99
2018-05-23T03:04:15.331Z,99.99
2018-05-23T03:05:15.333Z,99.99
2018-05-23T03:06:15.325Z,99.99
2018-05-23T03:07:15.328Z,99.99
2018-05-23T03:08:15.327Z,99.99
2018-05-23T03:09:15.326Z,99.99
2018-05-23T03:10:15.330Z,99.99
2018-05-23T03:11:15.319Z,99.99
2018-05-23T03:12:15.315Z,99.99
2018-05-23T03:13:15.318Z,99.99
2018-05-23T03:14:15.317Z,99.99
2018-05-23T03:15:15.312Z,99.99
2018-05-23T03:16:15.310Z,99.99
2018-05-23T03:17:15.307Z,99.99
2018-05-23T03:18:15.305Z,99.99
2018-05-23T03:19:15.307Z,99.99
2018-05-23T03:20:15.310Z,99.99
2018-05-23T03:21:15.304Z,99.99
2018-05-23T03:22:15.305Z,99.99
2018-05-23T03:23:15.297Z,99.99
2018-05-23T03:24:15.296Z,99.99
2018-05-23T03:25:15.294Z,99.99
2018-05-23T03:26:15.295Z,99.99
2018-05-23T03:27:15.295Z,99.99
2018-05-23T03:28:15.296Z,99.99
2018-05-23T03:29:15.288Z,99.99
2018-05-23T03:30:15.287Z,99.99
2018-05-23T03:31:15.290Z,99.99
2018-05-23T03:32:15.287Z,99.99
2018-05-23T03:33:15.285Z,99.99
2018-05-23T03:34:15.284Z,99.99
2018-05-23T03:35:15.281Z,99.99
2018-05-23T03:36:15.276Z,99.99
2018-05-23T03:37:15.274Z,99.99
2018-05-23T03:38:15.272Z,99.99
2018-05-23T03:39:15.274Z,99.99
2018-05-23T03:40:15.273Z,99.99
2018-05-23T03:41:15.272Z,99.99
2018-05-23T03:42:15.272Z,99.99
2018-05-23T03:43:15.266Z,99.99
2018-05-23T03:44:15.262Z,99.99
2018-05-23T03:45:15.269Z,99.99
2018-05-23T03:46:15.265Z,99.99
2018-05-23T03:47:15.257Z,99.99
2018-05-23T03:48:15.257Z,99.99
2018-05-23T03:49:15.254Z,99.99
2018-05-23T03:50:15.253Z,99.99
2018-05-23T03:51:15.254Z,99.99
2018-05-23T03:52:15.257Z,99.99
2018-05-23T03:53:15.252Z,99.99
2018-05-23T03:54:15.250Z,99.99
2018-05-23T03:55:15.281Z,99.99
2018-05-23T03:56:15.243Z,99.99
2018-05-23T03:57:15.240Z,99.99
2018-05-23T03:58:15.239Z,99.99
2018-05-23T03:59:15.242Z,99.99
2018-05-23T04:00:15.239Z,99.99
2018-05-23T04:01:15.241Z,99.99
2018-05-23T04:02:15.236Z,99.99
2018-05-23T04:03:15.235Z,99.99
2018-05-23T04:04:15.233Z,99.99
2018-05-23T04:05:15.231Z,99.99
2018-05-23T04:06:15.229Z,99.99
2018-05-23T04:07:15.221Z,99.99
2018-05-23T04:08:15.221Z,99.99
2018-05-23T04:09:15.219Z,99.99
2018-05-23T04:10:15.218Z,99.99
2018-05-23T04:11:15.220Z,99.99
2018-05-23T04:12:15.219Z,99.99
2018-05-23T04:13:15.218Z,99.99
2018-05-23T04:14:15.215Z,99.99
2018-05-23T04:15:15.208Z,99.99
2018-05-23T04:16:15.207Z,99.99
2018-05-23T04:17:15.211Z,99.99
2018-05-23T04:18:15.218Z,99.99
2018-05-23T04:19:15.202Z,99.99
2018-05-23T04:20:15.201Z,99.99
2018-05-23T04:21:15.201Z,99.99
2018-05-23T04:22:15.198Z,99.99
2018-05-23T04:23:15.204Z,99.99
2018-05-23T04:24:15.200Z,99.99
2018-05-23T04:25:15.198Z,99.99
2018-05-23T04:26:15.197Z,99.99
2018-05-23T04:27:15.189Z,99.99
2018-05-23T04:28:15.189Z,99.99
2018-05-23T04:29:15.187Z,99.99
2018-05-23T04:30:15.186Z,99.99
2018-05-23T04:31:15.188Z,99.99
2018-05-23T04:32:15.187Z,99.99
2018-05-23T04:33:15.182Z,99.99
2018-05-23T04:34:15.180Z,99.99
2018-05-23T04:35:15.182Z,99.99
2018-05-23T04:36:15.180Z,99.99
2018-05-23T04:37:15.181Z,99.99
2018-05-23T04:38:15.179Z,99.99
2018-05-23T04:39:15.242Z,99.99
2018-05-23T04:40:15.172Z,99.99
2018-05-23T04:41:15.171Z,99.99
2018-05-23T04:42:15.169Z,99.99
2018-05-23T04:43:15.172Z,99.99
2018-05-23T04:44:15.170Z,99.99
2018-05-23T04:45:15.168Z,99.99
2018-05-23T04:46:15.168Z,99.99
2018-05-23T04:47:15.161Z,99.99
2018-05-23T04:48:15.160Z,99.99
2018-05-23T04:49:15.166Z,99.99
2018-05-23T04:50:15.162Z,99.99
2018-05-23T04:51:15.156Z,99.99
2018-05-23T04:52:15.154Z,99.99
2018-05-23T04:53:15.154Z,99.99
2018-05-23T04:54:15.156Z,99.99
2018-05-23T04:55:15.155Z,99.99
2018-05-23T04:56:15.155Z,99.99
2018-05-23T04:57:15.154Z,99.99
2018-05-23T04:58:15.153Z,99.99
2018-05-23T04:59:15.146Z,99.99
2018-05-23T05:00:15.149Z,99.99
2018-05-23T05:01:15.143Z,99.99
2018-05-23T05:02:15.143Z,99.99
2018-05-23T05:03:15.145Z,99.99
2018-05-23T05:04:15.144Z,99.99
2018-05-23T05:05:15.139Z,99.99
2018-05-23T05:06:15.138Z,99.99
2018-05-23T05:07:15.144Z,99.99
2018-05-23T05:08:15.139Z,99.99
2018-05-23T05:09:15.138Z,99.99
2018-05-23T05:10:15.138Z,99.99
2018-05-23T05:11:15.131Z,99.99
2018-05-23T05:12:15.131Z,99.99
2018-05-23T05:13:15.129Z,99.99
2018-05-23T05:14:15.129Z,99.99
2018-05-23T05:15:15.130Z,99.99
2018-05-23T05:16:15.130Z,99.99
2018-05-23T05:17:15.131Z,99.99
2018-05-23T05:18:15.128Z,99.99
2018-05-23T05:19:15.122Z,99.99
2018-05-23T05:20:15.121Z,99.99
2018-05-23T05:21:15.126Z,99.99
2018-05-23T05:22:15.124Z,99.99
2018-05-23T05:23:15.117Z,99.99
2018-05-23T05:24:15.117Z,99.99
2018-05-23T05:25:15.116Z,99.99
2018-05-23T05:26:15.113Z,99.99
2018-05-23T05:27:15.117Z,99.99
2018-05-23T05:28:15.116Z,99.99
2018-05-23T05:29:15.115Z,99.99
2018-05-23T05:30:15.117Z,99.99
2018-05-23T05:31:15.111Z,99.99
2018-05-23T05:32:15.106Z,99.99
2018-05-23T05:33:15.106Z,99.99
2018-05-23T05:34:15.109Z,99.99
2018-05-23T05:35:15.108Z,99.99
2018-05-23T05:36:15.110Z,99.99
2018-05-23T05:37:15.102Z,99.99
2018-05-23T05:38:15.103Z,99.99
2018-05-23T05:39:15.105Z,99.99
2018-05-23T05:40:15.104Z,99.99
2018-05-23T05:41:15.102Z,99.99
2018-05-23T05:42:15.101Z,99.99
2018-05-23T05:43:15.095Z,99.99
2018-05-23T05:44:15.095Z,99.99
2018-05-23T05:45:15.094Z,99.99
2018-05-23T05:46:15.093Z,99.99
2018-05-23T05:47:15.096Z,99.99
2018-05-23T05:48:15.095Z,99.99
2018-05-23T05:49:15.096Z,99.99
2018-05-23T05:50:15.097Z,99.99
2018-05-23T05:51:15.088Z,99.99
2018-05-23T05:52:15.088Z,99.99
2018-05-23T05:53:15.093Z,99.99
2018-05-23T05:54:15.091Z,99.99
2018-05-23T05:55:15.085Z,99.99
2018-05-23T05:56:15.083Z,99.99
2018-05-23T05:57:15.082Z,99.99
2018-05-23T05:58:15.083Z,99.99
2018-05-23T05:59:15.085Z,99.99
2018-05-23T06:00:15.088Z,99.99
2018-05-23T06:01:15.084Z,99.99
2018-05-23T06:02:15.083Z,99.99
2018-05-23T06:03:15.077Z,99.99
2018-05-23T06:04:15.077Z,99.99
2018-05-23T06:05:15.077Z,99.99
2018-05-23T06:06:15.076Z,99.99
2018-05-23T06:07:15.079Z,99.99
2018-05-23T06:08:15.080Z,99.99
2018-05-23T06:09:15.074Z,99.99
2018-05-23T06:10:15.073Z,99.99
2018-05-23T06:11:15.078Z,99.99
2018-05-23T06:12:15.077Z,99.99
2018-05-23T06:13:15.075Z,99.99
2018-05-23T06:14:15.075Z,99.99
2018-05-23T06:15:15.070Z,99.99
2018-05-23T06:16:15.068Z,99.99
2018-05-23T06:17:15.075Z,99.99
2018-05-23T06:18:15.068Z,99.99
2018-05-23T06:19:15.071Z,99.99
2018-05-23T06:20:15.071Z,99.99
2018-05-23T06:21:15.072Z,99.99
2018-05-23T06:22:15.160Z,99.99
2018-05-23T06:23:15.065Z,99.99
2018-05-23T06:24:15.066Z,99.99
2018-05-23T06:25:15.069Z,99.99
2018-05-23T06:26:15.070Z,99.99
2018-05-23T06:27:15.068Z,99.99
2018-05-23T06:28:15.063Z,99.99
2018-05-23T06:29:15.063Z,99.99
2018-05-23T06:30:15.074Z,99.99
2018-05-23T06:31:15.066Z,99.99
2018-05-23T06:32:15.066Z,99.99
2018-05-23T06:33:15.066Z,99.99
2018-05-23T06:34:15.065Z,99.99
2018-05-23T06:35:15.062Z,99.99
2018-05-23T06:36:15.062Z,99.99
2018-05-23T06:37:15.061Z,99.99
2018-05-23T06:38:15.062Z,99.99
2018-05-23T06:39:15.065Z,99.99
2018-05-23T06:40:15.065Z,99.99
2018-05-23T06:41:15.060Z,99.99
2018-05-23T06:42:15.063Z,99.99
2018-05-23T06:43:15.065Z,99.99
2018-05-23T06:44:15.065Z,99.99
2018-05-23T06:45:15.064Z,99.99
2018-05-23T06:46:15.064Z,99.83
2018-05-23T06:47:15.059Z,99.83
2018-05-23T06:48:15.060Z,99.21
2018-05-23T06:49:15.061Z,98.49
2018-05-23T06:50:15.059Z,98.77
2018-05-23T06:51:15.064Z,98.87
2018-05-23T06:52:15.064Z,97.91
2018-05-23T06:53:15.144Z,98.19
2018-05-23T06:54:15.066Z,97.62
2018-05-23T06:55:15.060Z,97.62
2018-05-23T06:56:15.061Z,96.85
2018-05-23T06:57:15.067Z,97.42
2018-05-23T06:58:15.067Z,96.75
2018-05-23T06:59:15.060Z,96.27
2018-05-23T07:00:15.066Z,96.47
2018-05-23T07:01:15.062Z,96.85
2018-05-23T07:02:15.061Z,96.70
2018-05-23T07:03:15.068Z,96.61
2018-05-23T07:04:15.065Z,95.84
2018-05-23T07:05:15.069Z,95.94
2018-05-23T07:06:15.067Z,95.84
2018-05-23T07:07:15.064Z,96.22
2018-05-23T07:08:15.063Z,94.82
2018-05-23T07:09:15.063Z,94.34
2018-05-23T07:10:15.063Z,93.67
2018-05-23T07:11:15.171Z,93.48
2018-05-23T07:12:15.069Z,93.38
2018-05-23T07:13:15.065Z,93.43
2018-05-23T07:14:15.066Z,93.43
2018-05-23T07:15:15.071Z,91.99
2018-05-23T07:16:15.072Z,92.94
2018-05-23T07:17:15.075Z,92.61
2018-05-23T07:18:15.073Z,91.93
2018-05-23T07:19:15.069Z,91.69
2018-05-23T07:20:15.073Z,90.92
2018-05-23T07:21:15.072Z,90.15
2018-05-23T07:22:15.073Z,89.61
2018-05-23T07:23:15.079Z,88.65
2018-05-23T07:24:15.081Z,88.75
2018-05-23T07:25:15.087Z,87.88
2018-05-23T07:26:15.087Z,86.96
2018-05-23T07:27:15.080Z,87.15
2018-05-23T07:28:15.081Z,85.89
2018-05-23T07:29:15.089Z,84.97
2018-05-23T07:30:15.091Z,85.36
2018-05-23T07:31:15.087Z,85.30
2018-05-23T07:32:15.090Z,83.85
2018-05-23T07:33:15.092Z,83.08
2018-05-23T07:34:15.095Z,83.08
2018-05-23T07:35:15.102Z,82.60
2018-05-23T07:36:15.103Z,82.84
2018-05-23T07:37:15.107Z,83.33
2018-05-23T07:38:15.129Z,83.04
2018-05-23T07:39:15.108Z,83.23
2018-05-23T07:40:15.109Z,83.14
2018-05-23T07:41:15.111Z,83.72
2018-05-23T07:42:15.118Z,83.81
2018-05-23T07:43:15.121Z,83.14
2018-05-23T07:44:15.125Z,83.14
2018-05-23T07:45:15.123Z,82.65
2018-05-23T07:46:15.127Z,82.84
2018-05-23T07:47:15.134Z,81.73
2018-05-23T07:48:15.138Z,80.86
2018-05-23T07:49:15.140Z,81.15
2018-05-23T07:50:15.148Z,79.60
2018-05-23T07:51:15.143Z,79.99
2018-05-23T07:52:15.145Z,79.89
2018-05-23T07:53:15.149Z,79.95
2018-05-23T07:54:15.150Z,80.72
2018-05-23T07:55:15.159Z,80.76
2018-05-23T07:56:15.161Z,80.57
2018-05-23T07:57:15.164Z,80.12
2018-05-23T07:58:15.168Z,79.29
2018-05-23T07:59:15.166Z,78.13
2018-05-23T08:00:15.170Z,77.40
2018-05-23T08:01:15.183Z,76.76
2018-05-23T08:02:15.185Z,76.02
2018-05-23T08:03:15.180Z,74.64
2018-05-23T08:04:15.186Z,73.67
2018-05-23T08:05:15.188Z,73.13
2018-05-23T08:06:15.193Z,72.25
2018-05-23T08:07:15.205Z,71.42
2018-05-23T08:08:15.205Z,70.64
2018-05-23T08:09:15.260Z,70.35
2018-05-23T08:10:15.216Z,70.09
2018-05-23T08:11:15.214Z,69.02
2018-05-23T08:12:15.222Z,68.31
2018-05-23T08:13:15.224Z,68.37
2018-05-23T08:14:15.231Z,68.96
2018-05-23T08:15:15.238Z,69.64
2018-05-23T08:16:15.244Z,68.70
2018-05-23T08:17:15.245Z,68.21
2018-05-23T08:18:15.251Z,67.89
2018-05-23T08:19:15.260Z,67.66
2018-05-23T08:20:15.265Z,68.18
2018-05-23T08:21:15.273Z,68.79
2018-05-23T08:22:15.278Z,68.21
2018-05-23T08:23:15.277Z,67.96
2018-05-23T08:24:15.371Z,67.14
2018-05-23T08:25:15.289Z,67.14
2018-05-23T08:26:15.296Z,67.37
2018-05-23T08:27:15.305Z,67.63
2018-05-23T08:28:15.310Z,67.50
2018-05-23T08:29:15.321Z,67.34
2018-05-23T08:30:15.324Z,66.69
2018-05-23T08:31:15.324Z,66.30
2018-05-23T08:32:15.331Z,65.01
2018-05-23T08:33:15.343Z,64.91
2018-05-23T08:34:15.348Z,63.39
2018-05-23T08:35:15.350Z,62.38
2018-05-23T08:36:15.356Z,62.51
2018-05-23T08:37:15.362Z,63.10
2018-05-23T08:38:15.370Z,61.67
2018-05-23T08:39:15.380Z,62.12
2018-05-23T08:40:15.386Z,60.91
2018-05-23T08:41:15.394Z,59.35
2018-05-23T08:42:15.404Z,58.89
2018-05-23T08:43:15.409Z,59.05
2018-05-23T08:44:15.412Z,57.29
2018-05-23T08:45:15.421Z,56.04
2018-05-23T08:46:15.436Z,57.54
2018-05-23T08:47:15.442Z,58.74
2018-05-23T08:48:15.453Z,58.51
2018-05-23T08:49:15.455Z,59.33
2018-05-23T08:50:15.464Z,58.09
2018-05-23T08:51:15.479Z,58.70
2018-05-23T08:52:15.487Z,57.43
2018-05-23T08:53:15.497Z,57.46
2018-05-23T08:54:15.506Z,56.58
2018-05-23T08:55:15.511Z,56.89
2018-05-23T08:56:15.521Z,57.57
2018-05-23T08:57:15.532Z,57.89
2018-05-23T08:58:15.542Z,57.85
2018-05-23T08:59:15.555Z,56.96
2018-05-23T09:00:15.565Z,54.93
2018-05-23T09:01:15.577Z,53.88
2018-05-23T09:02:15.590Z,53.20
2018-05-23T09:03:15.593Z,52.54
2018-05-23T09:04:15.604Z,52.03
2018-05-23T09:05:15.620Z,52.03
2018-05-23T09:06:15.632Z,52.61
2018-05-23T09:07:15.639Z,52.17
2018-05-23T09:08:15.652Z,51.07
2018-05-23T09:09:15.664Z,49.75
2018-05-23T09:10:15.676Z,47.93
2018-05-23T09:11:15.697Z,46.95
2018-05-23T09:12:15.768Z,45.50
2018-05-23T09:13:15.719Z,44.40
2018-05-23T09:14:15.733Z,44.13
2018-05-23T09:15:15.743Z,44.82
2018-05-23T09:16:15.757Z,44.04
2018-05-23T09:17:15.858Z,44.16
2018-05-23T09:18:15.784Z,43.99
2018-05-23T09:19:15.803Z,45.15
2018-05-23T09:20:15.816Z,45.54
2018-05-23T09:21:15.826Z,45.49
2018-05-23T09:22:15.842Z,45.53
2018-05-23T09:23:15.858Z,43.10
2018-05-23T09:24:15.874Z,42.88
2018-05-23T09:25:15.888Z,43.10
2018-05-23T09:26:15.903Z,42.04
2018-05-23T09:27:15.912Z,41.77
2018-05-23T09:28:15.927Z,41.25
2018-05-23T09:29:15.943Z,41.31
2018-05-23T09:30:15.957Z,43.46
2018-05-23T09:31:15.976Z,45.37
2018-05-23T09:32:16.005Z,45.50
2018-05-23T09:33:16.006Z,45.42
2018-05-23T09:34:16.021Z,45.91
2018-05-23T09:35:16.033Z,45.44
2018-05-23T09:36:16.046Z,45.42
2018-05-23T09:37:16.063Z,44.81
2018-05-23T09:38:16.078Z,44.98
2018-05-23T09:39:16.128Z,44.35
2018-05-23T09:40:16.160Z,43.08
2018-05-23T09:41:16.115Z,42.05
2018-05-23T09:42:16.131Z,42.37
2018-05-23T09:43:16.149Z,42.21
2018-05-23T09:44:16.167Z,42.28
2018-05-23T09:45:16.243Z,41.78
2018-05-23T09:46:16.194Z,40.47
2018-05-23T09:47:16.202Z,40.19
2018-05-23T09:48:16.216Z,41.55
2018-05-23T09:49:16.232Z,42.36
2018-05-23T09:50:16.248Z,43.84
2018-05-23T09:51:16.266Z,44.13
2018-05-23T09:52:16.283Z,44.59
2018-05-23T09:53:16.294Z,46.00
2018-05-23T09:54:16.309Z,47.07
2018-05-23T09:55:16.326Z,47.92
2018-05-23T09:56:16.341Z,48.58
2018-05-23T09:57:16.357Z,48.97
2018-05-23T09:58:16.371Z,49.63
2018-05-23T09:59:16.379Z,50.65
2018-05-23T10:00:16.393Z,49.55
2018-05-23T10:01:16.407Z,48.70
2018-05-23T10:02:16.422Z,46.97
2018-05-23T10:03:16.439Z,46.91
2018-05-23T10:04:16.452Z,45.37
2018-05-23T10:05:16.465Z,43.68
2018-05-23T10:06:16.478Z,44.15
2018-05-23T10:07:16.486Z,44.27
2018-05-23T10:08:16.500Z,43.90
2018-05-23T10:09:16.520Z,44.13
2018-05-23T10:10:16.532Z,45.28
2018-05-23T10:11:16.540Z,45.37
2018-05-23T10:12:16.556Z,45.42
2018-05-23T10:13:16.573Z,45.37
2018-05-23T10:14:16.583Z,44.21
2018-05-23T10:15:16.601Z,43.52
2018-05-23T10:16:16.621Z,43.26
2018-05-23T10:17:16.630Z,43.05
2018-05-23T10:18:16.645Z,42.86
2018-05-23T10:19:16.659Z,42.57
2018-05-23T10:20:16.668Z,42.74
2018-05-23T10:21:16.682Z,43.27
2018-05-23T10:22:16.697Z,44.34
2018-05-23T10:23:16.713Z,43.81
2018-05-23T10:24:16.730Z,44.44
2018-05-23T10:25:16.737Z,44.17
2018-05-23T10:26:16.835Z,43.98
2018-05-23T10:27:16.769Z,44.07
2018-05-23T10:28:16.783Z,44.14
2018-05-23T10:29:16.797Z,45.95
2018-05-23T10:30:16.811Z,46.44
2018-05-23T10:31:16.818Z,46.73
2018-05-23T10:32:16.832Z,48.12
2018-05-23T10:33:16.912Z,49.44
2018-05-23T10:34:16.861Z,50.85
2018-05-23T10:35:16.870Z,51.70
2018-05-23T10:36:16.881Z,52.09
2018-05-23T10:37:16.894Z,52.67
2018-05-23T10:38:16.904Z,52.47
2018-05-23T10:39:16.920Z,52.21
2018-05-23T10:40:16.931Z,52.33
2018-05-23T10:41:16.949Z,52.21
2018-05-23T10:42:16.946Z,52.89
2018-05-23T10:43:16.961Z,53.35
2018-05-23T10:44:16.972Z,54.75
2018-05-23T10:45:16.980Z,55.50
2018-05-23T10:46:16.993Z,55.87
2018-05-23T10:47:16.993Z,56.37
2018-05-23T10:48:17.005Z,57.42
2018-05-23T10:49:17.012Z,57.70
2018-05-23T10:50:17.023Z,58.16
2018-05-23T10:51:17.034Z,58.94
2018-05-23T10:52:17.041Z,59.13
2018-05-23T10:53:17.050Z,59.71
2018-05-23T10:54:17.058Z,60.03
2018-05-23T10:55:17.096Z,59.71
2018-05-23T10:56:17.079Z,60.97
2018-05-23T10:57:17.150Z,61.14
2018-05-23T10:58:17.089Z,61.62
2018-05-23T10:59:17.089Z,60.75
2018-05-23T11:00:17.095Z,60.07
2018-05-23T11:01:17.104Z,59.78
2018-05-23T11:02:17.111Z,59.94
2018-05-23T11:03:17.120Z,58.98
2018-05-23T11:04:17.126Z,58.11
2018-05-23T11:05:17.133Z,57.69
2018-05-23T11:06:17.139Z,58.47
2018-05-23T11:07:17.140Z,57.95
2018-05-23T11:08:17.146Z,58.27
2018-05-23T11:09:17.154Z,58.92
2018-05-23T11:10:17.156Z,58.75
2018-05-23T11:11:17.168Z,58.56
2018-05-23T11:12:17.173Z,58.75
2018-05-23T11:13:17.174Z,58.95
2018-05-23T11:14:17.178Z,58.65
2018-05-23T11:15:17.213Z,59.63
2018-05-23T11:16:17.192Z,59.82
2018-05-23T11:17:17.197Z,59.91
2018-05-23T11:18:17.202Z,59.91
2018-05-23T11:19:17.201Z,59.56
2018-05-23T11:20:17.206Z,59.66
2018-05-23T11:21:17.217Z,59.86
2018-05-23T11:22:17.215Z,59.66
2018-05-23T11:23:17.223Z,60.05
2018-05-23T11:24:17.228Z,59.86
2018-05-23T11:25:17.233Z,60.41
2018-05-23T11:26:17.238Z,60.72
2018-05-23T11:27:17.235Z,59.92
2018-05-23T11:28:17.241Z,60.79
2018-05-23T11:29:17.249Z,60.41
2018-05-23T11:30:17.255Z,60.50
2018-05-23T11:31:17.251Z,60.79
2018-05-23T11:32:17.255Z,61.76
2018-05-23T11:33:17.259Z,61.44
2018-05-23T11:34:17.263Z,62.12
2018-05-23T11:35:17.270Z,62.21
2018-05-23T11:36:17.274Z,62.92
2018-05-23T11:37:17.328Z,63.28
2018-05-23T11:38:17.283Z,62.98
2018-05-23T11:39:17.283Z,63.56
2018-05-23T11:40:17.284Z,64.01
2018-05-23T11:41:17.291Z,64.59
2018-05-23T11:42:17.292Z,65.27
2018-05-23T11:43:17.300Z,65.75
2018-05-23T11:44:17.303Z,66.33
2018-05-23T11:45:17.301Z,66.53
2018-05-23T11:46:17.305Z,67.01
2018-05-23T11:47:17.311Z,67.01
2018-05-23T11:48:17.314Z,67.01
2018-05-23T11:49:17.319Z,67.30
2018-05-23T11:50:17.324Z,67.55
2018-05-23T11:51:17.319Z,67.17
2018-05-23T11:52:17.409Z,68.04
2018-05-23T11:53:17.325Z,67.94
2018-05-23T11:54:17.328Z,68.43
2018-05-23T11:55:17.335Z,68.62
2018-05-23T11:56:17.339Z,68.43
2018-05-23T11:57:17.344Z,68.81
2018-05-23T11:58:17.342Z,69.84
2018-05-23T11:59:17.340Z,71.58
2018-05-23T12:00:17.342Z,73.18
2018-05-23T12:01:17.352Z,75.40
2018-05-23T12:02:17.352Z,78.19
2018-05-23T12:03:17.349Z,81.04
2018-05-23T12:04:17.353Z,82.20
2018-05-23T12:05:17.354Z,84.18
2018-05-23T12:06:17.355Z,86.30
2018-05-23T12:07:17.361Z,85.68
2018-05-23T12:08:17.363Z,87.51
2018-05-23T12:09:17.366Z,88.38
2018-05-23T12:10:17.389Z,89.53
2018-05-23T12:11:17.363Z,90.59
2018-05-23T12:12:17.363Z,90.78
2018-05-23T12:13:17.365Z,89.96
2018-05-23T12:14:17.366Z,90.64
2018-05-23T12:15:17.370Z,90.83
2018-05-23T12:16:17.371Z,90.44
2018-05-23T12:17:17.368Z,90.30
2018-05-23T12:18:17.369Z,90.78
2018-05-23T12:19:17.373Z,91.26
2018-05-23T12:20:17.375Z,90.00
2018-05-23T12:21:17.380Z,89.33
2018-05-23T12:22:17.377Z,87.83
2018-05-23T12:23:17.375Z,86.77
2018-05-23T12:24:17.375Z,87.35
2018-05-23T12:25:17.375Z,87.93
2018-05-23T12:26:17.375Z,88.60
2018-05-23T12:27:17.382Z,86.87
2018-05-23T12:28:17.382Z,84.98
2018-05-23T12:29:17.383Z,85.08
2018-05-23T12:30:17.385Z,82.72
2018-05-23T12:31:17.380Z,83.30
2018-05-23T12:32:17.382Z,83.88
2018-05-23T12:33:17.388Z,82.92
2018-05-23T12:34:17.388Z,82.43
2018-05-23T12:35:17.385Z,81.37
2018-05-23T12:36:17.390Z,82.43
2018-05-23T12:37:17.389Z,84.01
2018-05-23T12:38:17.390Z,82.34
2018-05-23T12:39:17.396Z,81.47
2018-05-23T12:40:17.396Z,81.27
2018-05-23T12:41:17.397Z,81.70
2018-05-23T12:42:17.399Z,81.41
2018-05-23T12:43:17.395Z,81.99
2018-05-23T12:44:17.397Z,82.76
2018-05-23T12:45:17.399Z,82.48
2018-05-23T12:46:17.401Z,81.60
2018-05-23T12:47:17.407Z,81.12
2018-05-23T12:48:17.412Z,81.70
2018-05-23T12:49:17.405Z,81.22
2018-05-23T12:50:17.408Z,80.35
2018-05-23T12:51:17.413Z,80.58
2018-05-23T12:52:17.416Z,80.39